Time;durP1;ratioP1;P1;durP2;ratioP2;P2;SDS_P1;SDS_P2;PMS_P1;PMS_P2;Temp;Humidity;BMP_temperature;BMP_pressure;BME280_temperature;BME280_humidity;BME280_pressure;Samples;Min_cycle;Max_cycle;Signal;HPM_P1;HPM_P2
2021/12/18 00:00:10;;;;;;;62.60;9.65;;;7.40;99.90;;;;;;5034617;28;20073;-72
2021/12/18 00:02:35;;;;;;;32.42;7.38;;;7.40;99.90;;;;;;5032051;28;20051;-73
2021/12/18 00:05:01;;;;;;;42.10;8.07;;;7.40;99.90;;;;;;5024852;28;20045;-73
2021/12/18 00:07:27;;;;;;;48.15;7.50;;;7.40;99.90;;;;;;5015758;28;20668;-72
2021/12/18 00:09:54;;;;;;;19.42;5.70;;;7.30;99.90;;;;;;5044058;28;20044;-72
2021/12/18 00:12:19;;;;;;;28.30;6.50;;;7.30;99.90;;;;;;5019545;28;20110;-72
2021/12/18 00:14:45;;;;;;;33.00;6.70;;;7.30;99.90;;;;;;5022484;28;20049;-72
2021/12/18 00:17:11;;;;;;;46.13;6.95;;;7.30;99.90;;;;;;5008584;28;20520;-72
2021/12/18 00:19:37;;;;;;;39.47;7.45;;;7.20;99.90;;;;;;5012675;28;20496;-73
2021/12/18 00:22:06;;;;;;;38.90;7.67;;;7.10;99.90;;;;;;5026873;28;20044;-72
2021/12/18 00:24:32;;;;;;;50.83;6.88;;;7.10;99.90;;;;;;5041029;28;20059;-72
2021/12/18 00:26:58;;;;;;;64.70;8.23;;;7.10;99.90;;;;;;5043616;28;20056;-72
2021/12/18 00:29:24;;;;;;;32.50;7.10;;;7.10;99.90;;;;;;5028468;28;20049;-72
2021/12/18 00:31:51;;;;;;;53.63;7.10;;;7.10;99.90;;;;;;5031522;28;20807;-72
2021/12/18 00:34:18;;;;;;;64.40;7.05;;;7.10;99.90;;;;;;5014852;28;20072;-73
2021/12/18 00:36:43;;;;;;;35.97;5.80;;;7.10;99.90;;;;;;5031497;28;20049;-72
2021/12/18 00:39:10;;;;;;;29.85;5.18;;;7.10;99.90;;;;;;4998839;28;20045;-72
2021/12/18 00:41:49;;;;;;;44.08;6.25;;;7.00;99.90;;;;;;5023256;28;20045;-72
2021/12/18 00:44:16;;;;;;;35.30;6.43;;;7.00;99.90;;;;;;5029392;28;20574;-72
2021/12/18 00:46:44;;;;;;;47.70;6.85;;;7.00;99.90;;;;;;5023477;28;20045;-72
2021/12/18 00:49:14;;;;;;;43.13;6.03;;;6.90;99.90;;;;;;5041333;28;20037;-72
2021/12/18 00:51:40;;;;;;;14.00;3.88;;;6.90;99.90;;;;;;5024750;28;20053;-72
2021/12/18 00:54:06;;;;;;;54.90;7.65;;;6.90;99.90;;;;;;5007335;28;20380;-72
2021/12/18 00:56:32;;;;;;;49.83;6.63;;;6.90;99.90;;;;;;5024564;28;20124;-72
2021/12/18 00:59:04;;;;;;;18.63;4.80;;;6.90;99.90;;;;;;5013408;28;20591;-72
2021/12/18 01:01:31;;;;;;;25.70;5.28;;;6.90;99.90;;;;;;5010850;28;20053;-72
2021/12/18 01:04:00;;;;;;;13.88;4.32;;;7.00;99.90;;;;;;5030309;28;20049;-72
2021/12/18 01:06:27;;;;;;;59.88;6.43;;;7.00;99.90;;;;;;5024608;28;20060;-72
2021/12/18 01:08:56;;;;;;;40.45;5.80;;;7.00;99.90;;;;;;5008972;28;20041;-72
2021/12/18 01:11:34;;;;;;;37.85;6.28;;;7.00;99.90;;;;;;5008807;28;20108;-72
2021/12/18 01:25:21;;;;;;;22.60;4.97;;;7.00;99.90;;;;;;5044467;28;20408;-72
2021/12/18 01:27:48;;;;;;;63.30;7.00;;;7.00;99.90;;;;;;5044902;28;20044;-72
2021/12/18 01:30:15;;;;;;;53.38;6.75;;;7.00;99.90;;;;;;5011240;28;20135;-72
2021/12/18 01:32:41;;;;;;;40.25;5.95;;;7.00;99.90;;;;;;5037327;28;20037;-72
2021/12/18 01:35:07;;;;;;;30.52;5.53;;;7.00;99.90;;;;;;5042589;28;20522;-72
2021/12/18 01:37:33;;;;;;;25.38;5.45;;;7.00;99.90;;;;;;5027568;28;20053;-72
2021/12/18 01:39:59;;;;;;;36.50;5.90;;;7.00;99.90;;;;;;5019519;28;20547;-72
2021/12/18 01:45:36;;;;;;;30.33;4.75;;;6.90;99.90;;;;;;5046890;28;20060;-72
2021/12/18 01:53:25;;;;;;;22.13;3.97;;;6.90;99.90;;;;;;5048593;28;20053;-72
2021/12/18 01:55:52;;;;;;;14.50;3.40;;;6.90;99.90;;;;;;5029435;28;20040;-72
2021/12/18 01:58:22;;;;;;;36.08;4.55;;;6.80;99.90;;;;;;4996373;28;20052;-77
2021/12/18 02:00:50;;;;;;;36.45;5.25;;;6.80;99.90;;;;;;5039947;28;20684;-77
2021/12/18 02:03:16;;;;;;;40.38;4.45;;;6.80;99.90;;;;;;5009375;28;20046;-77
2021/12/18 02:05:41;;;;;;;32.50;3.88;;;6.70;99.90;;;;;;5026836;28;20041;-77
2021/12/18 02:08:08;;;;;;;13.70;3.47;;;6.70;99.90;;;;;;5035141;28;20048;-78
2021/12/18 02:10:45;;;;;;;27.10;3.97;;;6.70;99.90;;;;;;5029235;28;20041;-77
2021/12/18 02:13:35;;;;;;;33.38;4.28;;;6.70;99.90;;;;;;5023847;28;20063;-77
2021/12/18 02:21:33;;;;;;;64.18;5.63;;;6.60;99.90;;;;;;5046578;28;20041;-77
2021/12/18 02:24:00;;;;;;;71.00;6.47;;;6.60;99.90;;;;;;5047780;28;20047;-77
2021/12/18 02:26:26;;;;;;;64.95;6.57;;;6.60;99.90;;;;;;5031761;28;20045;-77
2021/12/18 02:28:54;;;;;;;45.43;5.60;;;6.60;99.90;;;;;;5048104;28;20076;-77
2021/12/18 02:31:20;;;;;;;42.38;5.53;;;6.60;99.90;;;;;;5012801;28;20518;-72
2021/12/18 02:33:46;;;;;;;27.73;5.20;;;6.60;99.90;;;;;;5047843;28;20124;-72
2021/12/18 02:36:21;;;;;;;23.98;5.05;;;6.50;99.90;;;;;;5046749;28;20152;-72
2021/12/18 02:41:29;;;;;;;31.33;5.07;;;6.50;99.90;;;;;;5046474;28;20056;-72
2021/12/18 02:44:01;;;;;;;49.63;5.80;;;6.50;99.90;;;;;;5030868;28;20052;-72
2021/12/18 02:46:31;;;;;;;35.50;5.40;;;6.50;99.90;;;;;;5037532;28;20055;-72
2021/12/18 02:48:58;;;;;;;56.80;6.57;;;6.50;99.90;;;;;;5022600;28;20084;-72
2021/12/18 02:51:24;;;;;;;21.13;4.80;;;6.50;99.90;;;;;;5029574;28;20056;-72
2021/12/18 02:53:53;;;;;;;40.17;6.07;;;6.50;99.90;;;;;;5046737;28;20048;-72
2021/12/18 02:56:23;;;;;;;22.55;4.78;;;6.50;99.90;;;;;;5046484;28;20045;-72
2021/12/18 02:58:52;;;;;;;27.58;5.57;;;6.50;99.90;;;;;;5030969;28;20059;-72
2021/12/18 03:01:22;;;;;;;18.25;4.00;;;6.50;99.90;;;;;;5040273;28;20720;-72
2021/12/18 03:03:49;;;;;;;12.30;3.47;;;6.60;99.90;;;;;;5030843;28;20051;-72
2021/12/18 03:06:36;;;;;;;19.00;3.75;;;6.60;99.90;;;;;;5046910;28;20242;-76
2021/12/18 03:25:04;;;;;;;14.65;3.55;;;6.50;99.90;;;;;;5039819;28;20045;-77
2021/12/18 03:27:30;;;;;;;14.25;4.10;;;6.50;99.90;;;;;;5047361;28;20045;-78
2021/12/18 03:29:57;;;;;;;19.52;4.07;;;6.50;99.90;;;;;;5047530;28;20049;-76
2021/12/18 03:32:24;;;;;;;15.65;3.60;;;6.50;99.90;;;;;;5044561;28;20045;-76
2021/12/18 03:34:52;;;;;;;15.05;3.58;;;6.50;99.90;;;;;;5030231;28;20041;-77
2021/12/18 03:37:18;;;;;;;18.63;3.42;;;6.50;99.90;;;;;;5013348;28;20084;-73
2021/12/18 03:39:45;;;;;;;22.67;3.87;;;6.50;99.90;;;;;;5025271;28;20053;-72
2021/12/18 03:42:12;;;;;;;12.50;3.60;;;6.50;99.90;;;;;;5026073;28;20500;-72
2021/12/18 03:44:38;;;;;;;13.70;2.93;;;6.50;99.90;;;;;;5026287;28;20046;-77
2021/12/18 03:47:05;;;;;;;11.48;2.65;;;6.50;99.90;;;;;;5042783;28;20519;-76
2021/12/18 03:49:31;;;;;;;13.70;3.08;;;6.50;99.90;;;;;;5026033;28;20053;-77
2021/12/18 03:51:57;;;;;;;8.87;2.10;;;6.40;99.90;;;;;;5026403;28;20051;-77
2021/12/18 03:54:23;;;;;;;11.13;2.88;;;6.50;99.90;;;;;;4992740;28;20045;-76
2021/12/18 03:56:49;;;;;;;13.38;2.97;;;6.40;99.90;;;;;;5045976;28;20076;-77
2021/12/18 03:59:15;;;;;;;20.25;2.90;;;6.40;99.90;;;;;;5027660;28;20083;-77
2021/12/18 04:01:41;;;;;;;23.27;3.25;;;6.40;99.90;;;;;;5000336;28;20175;-76
2021/12/18 04:04:07;;;;;;;20.88;3.15;;;6.40;99.90;;;;;;4992682;28;20056;-77
2021/12/18 04:06:32;;;;;;;20.00;3.03;;;6.40;99.90;;;;;;5009494;28;20045;-72
2021/12/18 04:08:59;;;;;;;21.33;3.00;;;6.30;99.90;;;;;;5005233;28;20442;-72
2021/12/18 04:11:25;;;;;;;26.33;3.13;;;6.40;99.90;;;;;;5045061;28;20552;-72
2021/12/18 04:13:51;;;;;;;25.80;3.40;;;6.40;99.90;;;;;;5045571;28;20049;-72
2021/12/18 04:16:18;;;;;;;18.70;2.90;;;6.40;99.90;;;;;;5008635;28;20458;-72
2021/12/18 04:18:44;;;;;;;13.03;3.20;;;6.40;99.90;;;;;;5008678;28;20103;-72
2021/12/18 04:21:09;;;;;;;27.80;3.53;;;6.30;99.90;;;;;;5025183;28;20046;-72
2021/12/18 04:23:35;;;;;;;19.73;3.80;;;6.40;99.90;;;;;;5038614;28;20045;-72
2021/12/18 04:26:01;;;;;;;26.93;3.90;;;6.40;99.90;;;;;;5045516;28;20045;-72
2021/12/18 04:28:27;;;;;;;21.87;3.97;;;6.40;99.90;;;;;;5044888;28;20045;-72
2021/12/18 04:30:54;;;;;;;19.93;3.67;;;6.30;99.90;;;;;;5045817;28;20049;-72
2021/12/18 04:33:20;;;;;;;15.37;3.37;;;6.40;99.90;;;;;;5025589;28;20142;-76
2021/12/18 04:35:46;;;;;;;29.48;3.97;;;6.30;99.90;;;;;;5009324;28;20046;-76
2021/12/18 04:38:12;;;;;;;27.98;3.92;;;6.40;99.90;;;;;;5025262;28;20050;-77
2021/12/18 04:40:38;;;;;;;29.73;4.10;;;6.40;99.90;;;;;;5025073;28;20071;-76
2021/12/18 04:43:04;;;;;;;29.17;3.72;;;6.40;99.90;;;;;;5026022;28;20050;-76
2021/12/18 04:45:30;;;;;;;13.75;2.80;;;6.40;99.90;;;;;;5024779;28;20041;-76
2021/12/18 04:47:56;;;;;;;22.27;3.50;;;6.40;99.90;;;;;;5009142;28;20073;-76
2021/12/18 04:50:23;;;;;;;15.83;3.20;;;6.40;99.90;;;;;;5008855;28;20046;-77
2021/12/18 04:52:49;;;;;;;19.93;3.23;;;6.40;99.90;;;;;;5025225;28;20243;-77
2021/12/18 04:55:16;;;;;;;26.73;3.50;;;6.40;99.90;;;;;;5035970;28;20036;-77
2021/12/18 04:57:41;;;;;;;25.67;3.67;;;6.40;99.90;;;;;;5026696;28;20041;-76
2021/12/18 05:00:10;;;;;;;23.47;3.67;;;6.40;99.90;;;;;;5025641;28;20563;-76
2021/12/18 05:02:40;;;;;;;10.67;2.87;;;6.40;99.90;;;;;;5023937;28;20467;-76
2021/12/18 05:05:07;;;;;;;12.88;3.00;;;6.40;99.90;;;;;;5010928;28;20451;-76
2021/12/18 05:07:33;;;;;;;16.10;3.00;;;6.40;99.90;;;;;;5042115;28;20408;-76
2021/12/18 05:09:59;;;;;;;19.77;3.63;;;6.40;99.90;;;;;;5043102;28;20080;-76
2021/12/18 05:12:25;;;;;;;22.00;3.57;;;6.40;99.90;;;;;;5025706;28;20037;-76
2021/12/18 05:14:51;;;;;;;19.13;3.10;;;6.40;99.90;;;;;;5026453;28;20056;-76
2021/12/18 05:17:17;;;;;;;23.30;3.30;;;6.40;99.90;;;;;;5042746;28;20334;-72
2021/12/18 05:19:43;;;;;;;18.58;3.10;;;6.40;99.90;;;;;;5042328;28;20135;-72
2021/12/18 05:22:09;;;;;;;21.53;3.43;;;6.40;99.90;;;;;;5009582;28;20060;-72
2021/12/18 05:24:35;;;;;;;21.27;3.17;;;6.40;99.90;;;;;;5042263;28;20052;-72
2021/12/18 05:27:01;;;;;;;21.70;3.27;;;6.40;99.90;;;;;;5042256;28;20053;-72
2021/12/18 05:29:27;;;;;;;14.50;3.40;;;6.40;99.90;;;;;;5041994;28;20041;-72
2021/12/18 05:31:53;;;;;;;13.63;2.67;;;6.40;99.90;;;;;;5033810;28;20103;-72
2021/12/18 05:34:23;;;;;;;21.43;4.10;;;6.40;99.90;;;;;;5005340;28;20496;-72
2021/12/18 05:39:29;;;;;;;28.53;4.90;;;6.40;99.90;;;;;;5054650;28;20059;-72
2021/12/18 05:41:56;;;;;;;26.83;4.37;;;6.40;99.90;;;;;;5042079;28;20071;-72
2021/12/18 05:44:24;;;;;;;32.85;4.68;;;6.40;99.90;;;;;;5024792;28;20041;-72
2021/12/18 05:46:51;;;;;;;25.73;4.73;;;6.40;99.90;;;;;;5025721;28;20049;-72
2021/12/18 05:49:17;;;;;;;21.30;4.33;;;6.40;99.90;;;;;;5041453;28;20072;-72
2021/12/18 05:51:43;;;;;;;20.97;4.07;;;6.50;99.90;;;;;;5025715;28;20137;-72
2021/12/18 05:54:10;;;;;;;30.23;4.60;;;6.50;99.90;;;;;;5041141;28;20048;-72
2021/12/18 05:56:37;;;;;;;34.40;4.78;;;6.50;99.90;;;;;;5041955;28;20400;-72
2021/12/18 05:59:03;;;;;;;19.30;3.72;;;6.50;99.90;;;;;;5025511;28;20067;-72
2021/12/18 06:01:30;;;;;;;28.27;4.43;;;6.50;99.90;;;;;;4996720;28;20041;-73
2021/12/18 06:03:56;;;;;;;24.67;4.10;;;6.50;99.90;;;;;;5038930;28;20409;-72
2021/12/18 06:06:22;;;;;;;34.60;5.17;;;6.50;99.90;;;;;;5041490;28;20103;-72
2021/12/18 06:08:49;;;;;;;27.30;4.93;;;6.60;99.90;;;;;;5029030;28;20085;-72
2021/12/18 06:11:16;;;;;;;30.43;5.73;;;6.70;99.90;;;;;;5021280;28;20400;-72
2021/12/18 06:13:43;;;;;;;31.87;5.30;;;6.50;99.90;;;;;;5005159;28;20060;-72
2021/12/18 06:16:10;;;;;;;34.58;5.45;;;6.60;99.90;;;;;;5001993;28;20052;-72
2021/12/18 06:18:40;;;;;;;30.03;5.30;;;6.60;99.90;;;;;;5008627;28;20480;-72
2021/12/18 06:21:06;;;;;;;35.03;6.20;;;6.60;99.90;;;;;;5041596;28;20056;-72
2021/12/18 06:23:35;;;;;;;35.83;5.97;;;6.60;99.90;;;;;;5013033;28;20045;-72
2021/12/18 06:26:02;;;;;;;40.80;6.13;;;6.60;99.90;;;;;;5012136;28;20052;-72
2021/12/18 06:28:28;;;;;;;32.57;6.23;;;6.60;99.90;;;;;;5045207;28;20044;-72
2021/12/18 06:30:57;;;;;;;32.97;5.50;;;6.60;99.90;;;;;;5011742;28;20530;-72
2021/12/18 06:33:23;;;;;;;28.60;5.93;;;6.60;99.90;;;;;;5028193;28;20190;-73
2021/12/18 06:35:49;;;;;;;26.67;6.57;;;6.70;99.90;;;;;;5013010;28;20130;-73
2021/12/18 06:38:15;;;;;;;37.10;6.97;;;6.60;99.90;;;;;;5028109;28;20124;-72
2021/12/18 06:40:41;;;;;;;28.77;6.33;;;6.70;99.90;;;;;;5028474;28;20055;-72
2021/12/18 06:43:06;;;;;;;39.77;6.50;;;6.70;99.90;;;;;;5031486;28;20092;-73
2021/12/18 06:45:32;;;;;;;33.23;6.67;;;6.70;99.90;;;;;;5048624;28;20079;-72
2021/12/18 06:47:59;;;;;;;36.40;6.50;;;6.70;99.90;;;;;;5048565;28;20073;-73
2021/12/18 06:50:25;;;;;;;39.80;7.17;;;6.70;99.90;;;;;;5031264;28;20061;-72
2021/12/18 06:52:51;;;;;;;43.73;7.57;;;6.70;99.90;;;;;;5048013;28;20060;-72
2021/12/18 06:55:17;;;;;;;45.77;8.10;;;6.80;99.90;;;;;;5047317;28;20434;-72
2021/12/18 06:57:42;;;;;;;39.37;8.07;;;6.80;99.90;;;;;;5031221;28;20045;-72
2021/12/18 07:00:11;;;;;;;35.87;7.87;;;6.80;99.90;;;;;;5047407;28;20076;-73
2021/12/18 07:02:38;;;;;;;48.00;7.63;;;6.80;99.90;;;;;;5027689;28;20437;-73
2021/12/18 07:05:05;;;;;;;54.05;8.45;;;6.80;99.90;;;;;;5027952;28;20115;-77
2021/12/18 07:07:30;;;;;;;61.27;9.83;;;6.80;99.90;;;;;;5027868;28;20131;-73
2021/12/18 07:09:56;;;;;;;49.58;8.88;;;6.80;99.90;;;;;;5011158;28;20136;-72
2021/12/18 07:12:22;;;;;;;48.40;9.25;;;6.80;99.90;;;;;;4995030;28;20049;-73
2021/12/18 07:14:48;;;;;;;45.93;9.30;;;6.80;99.90;;;;;;5033987;28;20151;-72
2021/12/18 07:17:14;;;;;;;43.90;9.23;;;6.90;99.90;;;;;;5014373;28;20045;-73
2021/12/18 07:19:40;;;;;;;36.28;8.93;;;6.90;99.90;;;;;;5030846;28;20515;-73
2021/12/18 07:22:06;;;;;;;52.43;10.23;;;6.90;99.90;;;;;;5047293;28;20045;-72
2021/12/18 07:24:31;;;;;;;43.30;9.50;;;6.90;99.90;;;;;;5029454;28;20115;-72
2021/12/18 07:26:57;;;;;;;52.03;10.52;;;6.90;99.90;;;;;;5030855;28;20063;-72
2021/12/18 07:29:23;;;;;;;50.03;10.37;;;6.90;99.90;;;;;;5026801;28;20073;-72
2021/12/18 07:31:52;;;;;;;54.87;10.53;;;6.90;99.90;;;;;;5026081;28;20045;-72
2021/12/18 07:34:19;;;;;;;54.38;10.45;;;6.90;99.90;;;;;;4993703;28;20041;-72
2021/12/18 07:36:44;;;;;;;54.17;10.75;;;7.00;99.90;;;;;;5043812;28;20041;-72
2021/12/18 07:39:14;;;;;;;60.38;11.57;;;7.00;99.90;;;;;;5040602;28;20492;-72
2021/12/18 07:41:40;;;;;;;52.73;11.27;;;7.00;99.90;;;;;;5044753;28;20432;-72
2021/12/18 07:44:06;;;;;;;37.17;10.17;;;7.00;99.90;;;;;;5045497;28;20045;-72
2021/12/18 07:46:37;;;;;;;37.47;10.27;;;7.10;99.90;;;;;;5009891;28;20507;-72
2021/12/18 07:49:07;;;;;;;42.63;11.75;;;7.10;99.90;;;;;;5033925;28;20140;-72
2021/12/18 07:51:33;;;;;;;58.70;18.88;;;7.10;99.90;;;;;;5045564;28;20058;-72
2021/12/18 07:53:59;;;;;;;40.25;11.73;;;7.10;99.90;;;;;;4996451;28;20045;-72
2021/12/18 07:56:25;;;;;;;64.45;11.90;;;7.10;99.90;;;;;;5045700;28;21094;-72
2021/12/18 07:58:52;;;;;;;48.20;11.18;;;7.20;99.90;;;;;;5010515;28;20088;-72
2021/12/18 08:01:18;;;;;;;54.38;11.20;;;7.20;99.90;;;;;;5024486;28;20045;-72
2021/12/18 08:03:44;;;;;;;41.63;10.68;;;7.20;99.90;;;;;;5028803;28;20041;-72
2021/12/18 08:06:10;;;;;;;56.85;12.45;;;7.20;99.90;;;;;;5045758;28;20056;-72
2021/12/18 08:08:36;;;;;;;46.25;11.20;;;7.20;99.90;;;;;;5026029;28;20049;-72
2021/12/18 08:11:03;;;;;;;48.55;10.60;;;7.30;99.90;;;;;;5025576;28;20045;-72
2021/12/18 08:13:31;;;;;;;49.47;11.30;;;7.30;99.90;;;;;;5008710;28;20056;-72
2021/12/18 08:15:57;;;;;;;34.45;10.55;;;7.30;99.90;;;;;;5037258;28;20088;-72
2021/12/18 08:18:23;;;;;;;41.72;11.50;;;7.30;99.90;;;;;;5028790;28;20507;-72
2021/12/18 08:20:52;;;;;;;34.38;10.82;;;7.30;99.90;;;;;;5028602;28;20408;-72
2021/12/18 08:23:18;;;;;;;42.25;12.40;;;7.30;99.90;;;;;;4995711;28;20056;-72
2021/12/18 08:25:44;;;;;;;38.95;11.52;;;7.40;99.90;;;;;;5045325;28;20052;-72
2021/12/18 08:28:09;;;;;;;36.92;11.23;;;7.40;99.90;;;;;;5012010;28;20055;-72
2021/12/18 08:30:38;;;;;;;37.35;10.63;;;7.40;99.90;;;;;;5044845;28;20579;-72
2021/12/18 08:33:04;;;;;;;42.45;13.90;;;7.50;99.90;;;;;;5043341;28;20049;-72
2021/12/18 08:35:32;;;;;;;43.30;13.10;;;7.50;99.90;;;;;;5027103;28;20144;-72
2021/12/18 08:37:59;;;;;;;39.28;11.70;;;7.50;99.90;;;;;;4994243;28;20157;-72
2021/12/18 08:40:26;;;;;;;42.03;11.55;;;7.50;99.90;;;;;;5026266;28;20070;-72
2021/12/18 08:42:52;;;;;;;28.70;10.50;;;7.50;99.90;;;;;;5018176;28;20318;-73
2021/12/18 08:45:19;;;;;;;30.90;10.80;;;7.50;99.90;;;;;;5036168;28;20559;-72
2021/12/18 08:47:45;;;;;;;27.45;11.20;;;7.60;99.90;;;;;;5015789;28;20049;-72
2021/12/18 08:50:21;;;;;;;30.67;11.18;;;7.60;99.90;;;;;;5019563;28;20408;-73
2021/12/18 08:52:48;;;;;;;39.00;12.88;;;7.60;99.90;;;;;;5009136;28;20061;-72
2021/12/18 08:55:16;;;;;;;29.27;11.60;;;7.60;99.90;;;;;;5027466;28;20488;-72
2021/12/18 08:57:42;;;;;;;28.27;11.60;;;7.70;99.90;;;;;;5048242;28;20053;-73
2021/12/18 09:00:12;;;;;;;33.85;11.70;;;7.70;99.90;;;;;;5024034;28;20099;-72
2021/12/18 09:02:42;;;;;;;29.33;10.90;;;7.70;99.90;;;;;;5031353;28;20052;-72
2021/12/18 09:05:10;;;;;;;33.92;10.32;;;7.70;99.90;;;;;;5015831;28;20614;-73
2021/12/18 09:07:36;;;;;;;24.65;10.55;;;7.70;99.90;;;;;;5029490;28;20122;-73
2021/12/18 09:10:04;;;;;;;33.53;18.30;;;7.70;99.90;;;;;;5022402;28;20346;-72
2021/12/18 09:12:30;;;;;;;34.00;14.00;;;7.80;99.90;;;;;;5024588;28;20037;-72
2021/12/18 09:15:14;;;;;;;27.17;11.63;;;7.80;99.90;;;;;;5037253;28;20083;-72
2021/12/18 09:17:48;;;;;;;24.13;9.82;;;7.90;99.90;;;;;;5024228;28;20068;-72
2021/12/18 09:20:26;;;;;;;24.45;10.32;;;7.90;99.90;;;;;;4995933;28;20404;-72
2021/12/18 09:22:59;;;;;;;30.60;10.55;;;7.90;99.90;;;;;;5006871;28;20092;-73
2021/12/18 09:25:35;;;;;;;22.42;10.35;;;8.00;99.90;;;;;;5000088;28;20056;-73
2021/12/18 09:28:13;;;;;;;23.25;10.07;;;8.00;99.90;;;;;;5023398;28;20045;-73
2021/12/18 09:30:46;;;;;;;17.70;8.43;;;8.00;99.90;;;;;;4992832;28;20072;-73
2021/12/18 09:33:38;;;;;;;17.80;8.20;;;8.00;99.90;;;;;;5033021;28;20047;-73
2021/12/18 09:36:15;;;;;;;23.23;8.18;;;8.10;99.90;;;;;;5022597;28;20137;-73
2021/12/18 09:38:46;;;;;;;17.70;8.60;;;8.10;99.90;;;;;;5012793;28;20115;-73
2021/12/18 09:41:33;;;;;;;18.63;8.07;;;8.20;99.90;;;;;;5019101;28;20500;-73
2021/12/18 09:44:01;;;;;;;15.50;7.13;;;8.10;99.90;;;;;;5024899;28;20133;-73
2021/12/18 09:46:33;;;;;;;18.75;7.80;;;8.10;99.90;;;;;;5034928;28;20033;-73
2021/12/18 09:49:07;;;;;;;17.58;7.60;;;8.20;99.90;;;;;;5015164;28;20087;-73
2021/12/18 09:51:40;;;;;;;19.20;7.72;;;8.20;99.90;;;;;;5012848;28;20103;-73
2021/12/18 09:54:06;;;;;;;17.90;7.78;;;8.20;99.90;;;;;;5035113;28;20618;-73
2021/12/18 09:56:33;;;;;;;15.13;7.00;;;8.30;99.90;;;;;;5013182;28;20530;-73
2021/12/18 09:59:03;;;;;;;14.57;6.25;;;8.30;99.90;;;;;;5056943;28;20053;-73
2021/12/18 10:01:33;;;;;;;13.32;6.45;;;8.30;99.90;;;;;;5020468;28;20032;-73
2021/12/18 10:04:05;;;;;;;13.98;6.88;;;8.40;99.90;;;;;;5044617;28;20053;-73
2021/12/18 10:06:40;;;;;;;17.63;6.95;;;8.40;99.90;;;;;;5025264;28;20049;-73
2021/12/18 10:09:33;;;;;;;18.58;6.82;;;8.50;99.90;;;;;;5029092;28;20787;-73
2021/12/18 10:12:26;;;;;;;14.45;6.53;;;8.50;99.90;;;;;;5034388;28;20092;-73
2021/12/18 10:14:52;;;;;;;17.30;7.68;;;8.50;99.90;;;;;;5027666;28;20357;-73
2021/12/18 10:17:27;;;;;;;21.17;6.78;;;8.50;99.90;;;;;;5011502;28;20385;-73
2021/12/18 10:20:14;;;;;;;17.23;6.13;;;8.50;99.90;;;;;;5017674;28;20042;-73
2021/12/18 10:22:47;;;;;;;14.68;6.13;;;8.50;99.90;;;;;;5032467;28;20331;-73
2021/12/18 10:25:17;;;;;;;19.02;6.63;;;8.60;99.90;;;;;;5034040;28;20037;-73
2021/12/18 10:27:52;;;;;;;12.25;5.78;;;8.60;99.90;;;;;;5012963;28;20555;-73
2021/12/18 10:30:20;;;;;;;12.27;5.70;;;8.60;99.90;;;;;;5029395;28;20542;-73
2021/12/18 10:33:05;;;;;;;12.95;5.25;;;8.60;99.90;;;;;;5025594;28;20561;-73
2021/12/18 10:35:51;;;;;;;14.02;6.15;;;8.70;99.90;;;;;;5041092;28;20511;-73
2021/12/18 10:38:37;;;;;;;13.70;5.80;;;8.70;99.90;;;;;;5027104;28;20547;-73
2021/12/18 10:41:18;;;;;;;15.15;7.40;;;8.70;99.90;;;;;;5042972;28;20226;-73
2021/12/18 10:44:08;;;;;;;13.68;4.78;;;8.70;99.90;;;;;;5040575;28;20052;-73
2021/12/18 10:46:41;;;;;;;6.78;4.22;;;8.80;99.90;;;;;;5053725;28;20049;-73
2021/12/18 10:49:16;;;;;;;9.95;4.75;;;8.70;99.90;;;;;;5026308;28;20454;-73
2021/12/18 10:51:43;;;;;;;10.05;4.93;;;8.80;99.90;;;;;;5037510;28;20041;-73
2021/12/18 10:54:24;;;;;;;10.90;4.22;;;8.70;99.90;;;;;;5027810;28;20128;-73
2021/12/18 10:56:52;;;;;;;10.15;5.13;;;8.70;99.90;;;;;;5046471;28;20056;-73
2021/12/18 10:59:23;;;;;;;8.80;4.65;;;8.70;99.90;;;;;;5029885;28;20049;-73
2021/12/18 11:02:00;;;;;;;11.82;5.25;;;8.70;99.90;;;;;;5038510;28;20072;-73
2021/12/18 11:04:28;;;;;;;14.43;6.03;;;8.80;99.90;;;;;;5039335;28;20481;-73
2021/12/18 11:06:55;;;;;;;14.95;6.07;;;8.70;99.90;;;;;;5030090;28;20041;-73
2021/12/18 11:09:31;;;;;;;13.40;6.00;;;8.70;99.90;;;;;;5032655;28;20124;-73
2021/12/18 11:14:41;;;;;;;14.07;6.07;;;8.70;99.90;;;;;;5029206;28;20489;-73
2021/12/18 11:17:15;;;;;;;16.15;6.35;;;8.70;99.90;;;;;;5036341;28;20515;-73
2021/12/18 11:19:42;;;;;;;15.35;7.00;;;8.70;99.90;;;;;;5039458;28;20087;-73
2021/12/18 11:22:09;;;;;;;13.52;6.72;;;8.70;99.90;;;;;;5032875;28;20045;-73
2021/12/18 11:24:47;;;;;;;18.67;7.93;;;8.80;99.90;;;;;;5057228;28;20045;-73
2021/12/18 11:27:16;;;;;;;12.00;6.30;;;8.80;99.90;;;;;;5032481;28;20048;-73
2021/12/18 11:30:06;;;;;;;17.20;7.05;;;8.80;99.90;;;;;;5028560;28;20178;-73
2021/12/18 11:32:41;;;;;;;12.93;6.20;;;8.80;99.90;;;;;;5026500;28;20128;-73
2021/12/18 11:35:13;;;;;;;11.05;6.07;;;8.80;99.90;;;;;;5026618;28;20057;-73
2021/12/18 11:37:53;;;;;;;10.25;5.93;;;8.80;99.90;;;;;;5038543;28;20076;-73
2021/12/18 11:40:29;;;;;;;13.38;5.93;;;8.80;99.90;;;;;;5026184;28;20568;-73
2021/12/18 11:42:55;;;;;;;13.48;5.63;;;8.80;99.90;;;;;;5027968;28;20064;-73
2021/12/18 11:45:30;;;;;;;10.35;6.55;;;8.80;99.90;;;;;;5028946;28;20440;-73
2021/12/18 11:47:59;;;;;;;12.02;6.13;;;8.80;99.90;;;;;;5045347;28;20076;-73
2021/12/18 11:50:31;;;;;;;12.15;6.65;;;8.80;99.90;;;;;;5029000;28;20049;-73
2021/12/18 11:53:03;;;;;;;13.88;7.07;;;8.80;99.90;;;;;;5029639;28;20040;-73
2021/12/18 11:55:49;;;;;;;15.43;7.82;;;8.80;99.90;;;;;;5043698;28;20048;-77
2021/12/18 11:58:23;;;;;;;13.60;7.55;;;8.80;99.90;;;;;;5028362;28;20045;-77
2021/12/18 12:00:52;;;;;;;12.63;6.88;;;8.80;99.90;;;;;;5044494;28;20444;-77
2021/12/18 12:03:35;;;;;;;11.23;6.30;;;8.80;99.90;;;;;;5028918;28;20583;-77
2021/12/18 12:06:18;;;;;;;13.35;6.32;;;8.90;99.90;;;;;;5042207;28;20053;-77
2021/12/18 12:08:44;;;;;;;12.25;5.82;;;8.80;99.90;;;;;;5041683;28;20377;-78
2021/12/18 12:11:21;;;;;;;13.30;6.05;;;8.80;99.90;;;;;;5043742;28;20044;-77
2021/12/18 12:14:07;;;;;;;11.80;6.28;;;8.80;99.90;;;;;;5026230;28;20045;-77
2021/12/18 12:16:45;;;;;;;12.50;6.30;;;8.80;99.90;;;;;;5027957;28;20045;-78
2021/12/18 12:19:20;;;;;;;9.93;5.43;;;8.80;99.90;;;;;;5045390;28;20036;-77
2021/12/18 12:21:54;;;;;;;10.60;5.68;;;8.80;99.90;;;;;;5045542;28;20379;-77
2021/12/18 12:24:25;;;;;;;11.38;5.70;;;8.80;99.90;;;;;;5042294;28;20043;-77
2021/12/18 12:26:53;;;;;;;13.35;6.85;;;8.80;99.90;;;;;;5027595;28;20403;-77
2021/12/18 12:29:23;;;;;;;14.98;8.20;;;8.90;99.90;;;;;;4992911;28;20524;-77
2021/12/18 12:31:54;;;;;;;6.75;4.18;;;8.80;99.90;;;;;;5025741;28;20393;-77
2021/12/18 12:34:26;;;;;;;9.10;4.13;;;8.90;99.90;;;;;;5025244;28;20112;-77
2021/12/18 12:36:58;;;;;;;11.93;4.07;;;8.90;99.90;;;;;;5026117;28;20045;-77
2021/12/18 12:39:54;;;;;;;8.65;3.70;;;8.90;99.90;;;;;;5009200;28;20851;-77
2021/12/18 12:42:20;;;;;;;11.43;3.63;;;8.80;99.90;;;;;;5044369;28;20067;-77
2021/12/18 12:44:52;;;;;;;8.95;3.17;;;8.80;99.90;;;;;;5044636;28;20539;-77
2021/12/18 12:47:27;;;;;;;8.32;2.70;;;8.80;99.90;;;;;;5027300;28;20083;-77
2021/12/18 12:49:56;;;;;;;7.50;3.30;;;8.80;99.90;;;;;;5026305;28;20044;-77
2021/12/18 12:52:27;;;;;;;10.18;3.47;;;8.90;99.90;;;;;;5027840;28;20396;-77
2021/12/18 12:55:06;;;;;;;9.35;2.63;;;8.90;99.90;;;;;;5027528;28;20041;-77
2021/12/18 12:57:34;;;;;;;11.13;3.35;;;8.90;99.90;;;;;;5039695;28;20124;-77
2021/12/18 13:00:05;;;;;;;9.00;3.20;;;9.00;99.90;;;;;;5026475;28;20561;-77
2021/12/18 13:02:37;;;;;;;11.20;3.67;;;9.00;99.90;;;;;;5024252;28;20151;-77
2021/12/18 13:05:08;;;;;;;12.35;4.32;;;8.90;99.90;;;;;;5008433;28;20767;-77
2021/12/18 13:07:36;;;;;;;13.38;4.60;;;8.90;99.90;;;;;;5024388;28;20127;-78
2021/12/18 13:10:02;;;;;;;10.85;4.43;;;8.90;99.90;;;;;;5009089;28;20051;-78
2021/12/18 13:12:29;;;;;;;11.45;3.58;;;8.90;99.90;;;;;;5024835;28;20103;-78
2021/12/18 13:14:55;;;;;;;10.00;3.28;;;8.90;99.90;;;;;;5016346;28;20060;-78
2021/12/18 13:17:27;;;;;;;11.23;3.67;;;8.90;99.90;;;;;;5024690;28;20049;-77
2021/12/18 13:19:53;;;;;;;14.13;4.30;;;8.90;99.90;;;;;;5047901;28;20117;-78
2021/12/18 13:22:22;;;;;;;9.05;3.92;;;8.90;99.90;;;;;;5045078;28;20111;-77
2021/12/18 13:25:08;;;;;;;10.95;3.88;;;8.90;99.90;;;;;;5044347;28;20053;-78
2021/12/18 13:27:36;;;;;;;12.10;4.55;;;8.90;99.90;;;;;;5020371;28;20033;-78
2021/12/18 13:30:28;;;;;;;12.05;4.57;;;8.90;99.90;;;;;;5024013;28;20050;-77
2021/12/18 13:33:03;;;;;;;11.55;4.20;;;8.90;99.90;;;;;;5026849;28;20875;-77
2021/12/18 13:35:35;;;;;;;9.80;3.92;;;8.90;99.90;;;;;;5028111;28;20052;-77
2021/12/18 13:38:09;;;;;;;11.07;4.45;;;8.90;99.90;;;;;;5012295;28;20146;-77
2021/12/18 13:40:36;;;;;;;10.45;4.38;;;8.90;99.90;;;;;;5027913;28;20507;-77
2021/12/18 13:43:20;;;;;;;14.55;5.88;;;8.90;99.90;;;;;;5043819;28;20045;-77
2021/12/18 13:46:06;;;;;;;12.30;4.25;;;8.90;99.90;;;;;;5015774;28;20545;-77